Terminal Aerodrome Forecast
Issued by NWS Quad Cities IA IL

Home | Current Version | Previous Version | Graphics & Text | Print | Product List | Glossary On
Versions: 1 2 3 4 5 6 7 8 9 10 11 12 13 14 15 16 17 18 19 20 21
000
FTUS43 KDVN 241232 AAA
TAFMLI
TAF AMD
KMLI 241232Z 2413/2512 03005KT 3SM BR BKN005 BKN070
     FM241500 34006KT P6SM BKN015
     FM241700 36009KT P6SM OVC025
     FM241900 01012KT P6SM VCSH BKN040
     FM250000 35006KT P6SM BKN050=

USA.gov is the U.S. government's official web portal to all federal, state and local government web resources and services.